createdAt,value
2019-04-25T00:02:28.231Z,8.28
2019-04-25T00:05:26.240Z,8.24
2019-04-25T00:08:34.891Z,8.01
2019-04-25T00:11:39.281Z,8.31
2019-04-25T00:14:38.483Z,8.14
2019-04-25T00:17:38.657Z,8.02
2019-04-25T00:20:32.950Z,8.05
2019-04-25T00:23:42.983Z,7.91
2019-04-25T00:26:59.685Z,8.01
2019-04-25T00:30:11.298Z,7.96
2019-04-25T00:33:16.726Z,7.84
2019-04-25T00:36:23.202Z,7.75
2019-04-25T00:39:32.943Z,7.77
2019-04-25T00:42:27.849Z,7.91
2019-04-25T00:45:23.055Z,7.81
2019-04-25T00:48:32.081Z,7.89
2019-04-25T00:51:38.371Z,7.96
2019-04-25T00:54:34.177Z,8.00
2019-04-25T00:57:32.939Z,8.01
2019-04-25T01:00:53.107Z,8.03
2019-04-25T01:03:35.584Z,8.10
2019-04-25T01:06:37.516Z,7.95
2019-04-25T01:09:36.469Z,8.00
2019-04-25T01:12:31.377Z,8.17
2019-04-25T01:15:31.546Z,8.18
2019-04-25T01:18:29.379Z,8.33
2019-04-25T01:21:35.369Z,8.23
2019-04-25T01:24:47.939Z,8.06
2019-04-25T01:27:49.711Z,8.06
2019-04-25T01:30:51.915Z,8.48
2019-04-25T01:33:56.607Z,8.19
2019-04-25T01:37:07.568Z,8.06
2019-04-25T01:40:37.570Z,8.15
2019-04-25T01:43:37.691Z,8.16
2019-04-25T01:46:44.263Z,8.03
2019-04-25T01:49:50.434Z,7.97
2019-04-25T01:52:55.613Z,7.92
2019-04-25T01:56:04.008Z,7.95
2019-04-25T01:59:04.925Z,7.83
2019-04-25T02:02:10.440Z,7.91
2019-04-25T02:05:15.078Z,7.90
2019-04-25T02:08:10.918Z,7.87
2019-04-25T02:11:43.920Z,7.96
2019-04-25T02:15:02.292Z,7.96
2019-04-25T02:17:59.009Z,7.98
2019-04-25T02:20:54.620Z,7.97
2019-04-25T02:23:54.025Z,8.06
2019-04-25T02:27:00.801Z,8.02
2019-04-25T02:30:15.522Z,7.97
2019-04-25T02:33:08.790Z,8.01
2019-04-25T02:36:20.336Z,8.04
2019-04-25T02:39:26.967Z,7.99
2019-04-25T02:42:30.162Z,7.98
2019-04-25T02:45:58.461Z,7.98
2019-04-25T02:49:28.925Z,8.01
2019-04-25T02:52:37.220Z,8.04
2019-04-25T02:55:37.538Z,8.02
2019-04-25T02:58:41.622Z,7.89
2019-04-25T03:01:45.791Z,7.76
2019-04-25T03:04:54.802Z,7.77
2019-04-25T03:08:07.977Z,7.72
2019-04-25T03:11:15.814Z,7.61
2019-04-25T03:14:15.623Z,7.59
2019-04-25T03:17:25.048Z,7.58
2019-04-25T03:20:49.670Z,7.53
2019-04-25T03:23:54.949Z,7.72
2019-04-25T03:27:00.849Z,7.68
2019-04-25T03:29:58.965Z,7.63
2019-04-25T03:33:19.522Z,7.58
2019-04-25T03:36:24.825Z,7.53
2019-04-25T03:39:27.052Z,7.57
2019-04-25T03:42:27.525Z,7.57
2019-04-25T03:45:25.939Z,7.63
2019-04-25T03:48:29.629Z,7.63
2019-04-25T03:51:02.217Z,7.54
2019-04-25T03:53:59.726Z,7.50
2019-04-25T03:56:51.980Z,7.50
2019-04-25T03:59:43.555Z,7.61
2019-04-25T04:02:34.394Z,7.69
2019-04-25T04:05:24.430Z,7.71
2019-04-25T04:08:09.704Z,7.96
2019-04-25T04:11:15.611Z,8.08
2019-04-25T04:14:03.911Z,8.09
2019-04-25T04:16:44.447Z,8.06
2019-04-25T04:19:53.616Z,8.12
2019-04-25T04:22:54.978Z,8.14
2019-04-25T04:25:29.419Z,8.15
2019-04-25T04:28:40.167Z,8.11
2019-04-25T04:31:55.756Z,8.09
2019-04-25T04:34:50.858Z,8.23
2019-04-25T04:37:23.532Z,8.23
2019-04-25T04:40:11.840Z,8.06
2019-04-25T04:42:59.469Z,8.02
2019-04-25T04:45:54.190Z,8.06
2019-04-25T04:48:56.285Z,8.30
2019-04-25T04:52:01.491Z,8.34
2019-04-25T04:55:06.395Z,8.40
2019-04-25T04:57:35.586Z,8.47
2019-04-25T05:00:24.634Z,8.47
2019-04-25T05:03:16.883Z,8.58
2019-04-25T05:06:29.472Z,8.75
2019-04-25T05:09:15.622Z,8.69
2019-04-25T05:12:19.491Z,8.75
2019-04-25T05:15:16.659Z,8.81
2019-04-25T05:18:32.936Z,9.00
2019-04-25T05:21:27.273Z,9.03
2019-04-25T05:24:26.140Z,9.10
2019-04-25T05:27:35.786Z,9.33
2019-04-25T05:30:27.277Z,9.49
2019-04-25T05:33:23.824Z,9.38
2019-04-25T05:36:29.733Z,9.34
2019-04-25T05:39:30.492Z,9.69
2019-04-25T05:42:54.171Z,9.91
2019-04-25T05:45:37.629Z,9.98
2019-04-25T05:48:38.944Z,9.60
2019-04-25T05:51:43.995Z,9.40
2019-04-25T05:54:35.279Z,9.44
2019-04-25T05:57:47.400Z,9.70
2019-04-25T06:00:44.005Z,9.78
2019-04-25T06:03:39.745Z,9.89
2019-04-25T06:06:42.701Z,9.96
2019-04-25T06:09:41.625Z,10.28
2019-04-25T06:12:54.627Z,10.28
2019-04-25T06:15:59.753Z,11.27
2019-04-25T06:19:25.264Z,12.52
2019-04-25T06:22:36.055Z,13.66
2019-04-25T06:25:40.628Z,14.01
2019-04-25T06:28:35.474Z,12.73
2019-04-25T06:31:50.388Z,13.65
2019-04-25T06:34:55.830Z,14.16
2019-04-25T06:38:00.281Z,14.87
2019-04-25T06:41:08.740Z,14.64
2019-04-25T06:44:10.053Z,14.60
2019-04-25T06:47:21.110Z,15.41
2019-04-25T06:50:26.217Z,17.28
2019-04-25T06:53:26.959Z,17.96
2019-04-25T06:56:40.016Z,19.19
2019-04-25T06:59:54.878Z,19.65
2019-04-25T07:03:00.345Z,19.69
2019-04-25T07:06:08.965Z,21.15
2019-04-25T07:09:03.884Z,20.05
2019-04-25T07:11:58.956Z,16.56
2019-04-25T07:15:06.486Z,17.23
2019-04-25T07:18:08.359Z,17.75
2019-04-25T07:21:15.375Z,19.78
2019-04-25T07:24:09.366Z,18.76
2019-04-25T07:27:14.747Z,16.42
2019-04-25T07:30:49.999Z,15.68
2019-04-25T07:33:58.692Z,14.54
2019-04-25T07:37:06.982Z,14.36
2019-04-25T07:40:09.633Z,13.69
2019-04-25T07:43:10.143Z,13.78
2019-04-25T07:46:20.422Z,13.82
2019-04-25T07:49:18.941Z,13.84
2019-04-25T07:52:27.214Z,14.24
2019-04-25T07:55:23.448Z,14.07
2019-04-25T07:58:45.366Z,14.22
2019-04-25T08:01:36.620Z,14.25
2019-04-25T08:04:34.843Z,14.31
2019-04-25T08:07:40.956Z,13.19
2019-04-25T08:10:38.127Z,13.13
2019-04-25T08:13:47.849Z,12.99
2019-04-25T08:16:53.763Z,13.03
2019-04-25T08:20:03.983Z,12.90
2019-04-25T08:23:13.866Z,13.20
2019-04-25T08:26:12.217Z,13.28
2019-04-25T08:29:17.680Z,14.24
2019-04-25T08:32:27.966Z,14.49
2019-04-25T08:35:24.208Z,14.88
2019-04-25T08:38:24.338Z,14.98
2019-04-25T08:41:21.508Z,15.36
2019-04-25T08:44:28.619Z,17.87
2019-04-25T08:47:37.478Z,19.68
2019-04-25T08:50:37.203Z,19.68
2019-04-25T08:53:45.045Z,19.36
2019-04-25T08:56:56.747Z,19.06
2019-04-25T09:00:14.235Z,19.06
2019-04-25T09:03:30.081Z,18.91
2019-04-25T09:06:32.862Z,19.45
2019-04-25T09:09:41.136Z,20.40
2019-04-25T09:12:48.630Z,20.26
2019-04-25T09:15:49.848Z,18.13
2019-04-25T09:19:04.670Z,17.58
2019-04-25T09:22:17.474Z,17.58
2019-04-25T09:25:15.595Z,17.73
2019-04-25T09:28:27.970Z,20.54
2019-04-25T09:31:11.102Z,21.47
2019-04-25T09:34:29.760Z,18.47
2019-04-25T09:37:36.494Z,17.39
2019-04-25T09:40:49.130Z,18.22
2019-04-25T09:43:57.983Z,16.48
2019-04-25T09:47:05.703Z,16.34
2019-04-25T09:50:04.061Z,16.31
2019-04-25T09:53:00.370Z,16.55
2019-04-25T09:56:23.925Z,16.22
2019-04-25T09:59:27.977Z,16.36
2019-04-25T10:02:26.341Z,16.90
2019-04-25T10:05:31.503Z,17.20
2019-04-25T10:08:38.701Z,17.20
2019-04-25T10:11:33.439Z,17.49
2019-04-25T10:15:14.691Z,16.99
2019-04-25T10:18:24.800Z,16.97
2019-04-25T10:21:28.985Z,16.55
2019-04-25T10:24:38.490Z,17.07
2019-04-25T10:27:41.339Z,17.85
2019-04-25T10:30:27.629Z,18.36
2019-04-25T10:33:20.377Z,21.24
2019-04-25T10:36:20.261Z,23.69
2019-04-25T10:39:26.825Z,24.79
2019-04-25T10:42:40.637Z,24.27
2019-04-25T10:45:27.733Z,25.01
2019-04-25T10:48:34.395Z,26.69
2019-04-25T10:51:42.744Z,24.45
2019-04-25T10:54:37.710Z,23.87
2019-04-25T10:57:29.892Z,24.37
2019-04-25T11:00:40.647Z,23.57
2019-04-25T11:04:05.342Z,24.63
2019-04-25T11:06:58.263Z,22.25
2019-04-25T11:10:19.249Z,21.19
2019-04-25T11:13:20.817Z,20.00
2019-04-25T11:16:18.138Z,20.02
2019-04-25T11:19:24.855Z,19.32
2019-04-25T11:22:26.228Z,21.05
2019-04-25T11:25:20.766Z,21.48
2019-04-25T11:28:25.435Z,21.34
2019-04-25T11:31:30.695Z,20.63
2019-04-25T11:34:44.875Z,21.63
2019-04-25T11:37:44.822Z,25.84
2019-04-25T11:40:55.055Z,27.51
2019-04-25T11:44:04.151Z,26.55
2019-04-25T11:47:00.506Z,24.33
2019-04-25T11:50:16.395Z,23.84
2019-04-25T11:53:29.045Z,23.68
2019-04-25T11:56:40.718Z,25.02
2019-04-25T11:59:54.621Z,23.96
2019-04-25T12:02:50.803Z,22.10
2019-04-25T12:05:56.868Z,23.14
2019-04-25T12:09:04.177Z,22.98
2019-04-25T12:12:17.114Z,23.96
2019-04-25T12:15:38.823Z,25.74
2019-04-25T12:18:44.791Z,26.00
2019-04-25T12:21:48.191Z,25.64
2019-04-25T12:24:58.357Z,24.83
2019-04-25T12:28:05.663Z,25.12
2019-04-25T12:31:05.635Z,27.30
2019-04-25T12:34:15.326Z,26.64
2019-04-25T12:37:23.270Z,27.74
2019-04-25T12:40:29.715Z,27.01
2019-04-25T12:43:31.504Z,25.93
2019-04-25T12:46:39.715Z,24.09
2019-04-25T12:49:46.581Z,23.38
2019-04-25T12:52:48.591Z,22.90
2019-04-25T12:55:54.933Z,22.29
2019-04-25T12:58:55.975Z,22.08
2019-04-25T13:02:09.202Z,22.50
2019-04-25T13:05:15.902Z,23.53
2019-04-25T13:08:24.835Z,21.95
2019-04-25T13:11:33.210Z,21.62
2019-04-25T13:14:47.917Z,22.47
2019-04-25T13:17:40.605Z,23.16
2019-04-25T13:20:55.144Z,24.28
2019-04-25T13:24:04.042Z,24.25
2019-04-25T13:27:25.037Z,27.18
2019-04-25T13:31:10.571Z,28.16
2019-04-25T13:34:18.752Z,27.12
2019-04-25T13:37:26.893Z,26.44
2019-04-25T13:40:31.039Z,26.62
2019-04-25T13:43:54.674Z,24.58
2019-04-25T13:47:03.953Z,23.92
2019-04-25T13:50:14.577Z,24.07
2019-04-25T13:53:13.334Z,24.21
2019-04-25T13:56:08.815Z,23.53
2019-04-25T13:59:12.821Z,23.01
2019-04-25T14:02:19.269Z,23.61
2019-04-25T14:05:24.647Z,23.65
2019-04-25T14:08:25.839Z,22.65
2019-04-25T14:11:26.638Z,22.67
2019-04-25T14:14:28.476Z,22.70
2019-04-25T14:17:33.750Z,22.12
2019-04-25T14:20:50.866Z,22.57
2019-04-25T14:23:54.185Z,22.97
2019-04-25T14:26:59.990Z,22.36
2019-04-25T14:30:07.767Z,22.20
2019-04-25T14:33:03.574Z,22.00
2019-04-25T14:36:09.073Z,21.65
2019-04-25T14:39:11.116Z,21.49
2019-04-25T14:42:12.589Z,20.91
2019-04-25T14:45:22.570Z,21.15
2019-04-25T14:48:31.924Z,21.64
2019-04-25T14:51:43.876Z,21.24
2019-04-25T14:54:58.975Z,21.07
2019-04-25T14:57:54.246Z,21.59
2019-04-25T15:01:02.584Z,21.96
2019-04-25T15:04:06.784Z,21.72
2019-04-25T15:07:11.502Z,21.47
2019-04-25T15:10:19.136Z,21.75
2019-04-25T15:13:19.445Z,21.85
2019-04-25T15:16:22.380Z,21.65
2019-04-25T15:19:11.027Z,21.45
2019-04-25T15:22:19.476Z,21.21
2019-04-25T15:25:06.956Z,21.58
2019-04-25T15:27:57.305Z,21.20
2019-04-25T15:30:36.282Z,21.20
2019-04-25T15:33:28.694Z,20.72
2019-04-25T15:36:40.760Z,20.73
2019-04-25T15:39:43.929Z,21.00
2019-04-25T15:42:38.858Z,21.31
2019-04-25T15:45:32.977Z,21.51
2019-04-25T15:48:21.389Z,21.70
2019-04-25T15:51:14.826Z,21.65
2019-04-25T15:53:58.488Z,20.99
2019-04-25T15:56:29.083Z,21.20
2019-04-25T15:59:10.125Z,20.90
2019-04-25T16:02:08.686Z,20.74
2019-04-25T16:05:02.570Z,20.92
2019-04-25T16:07:47.680Z,20.70
2019-04-25T16:10:44.093Z,20.33
2019-04-25T16:13:38.053Z,20.12
2019-04-25T16:16:30.340Z,19.88
2019-04-25T16:19:29.855Z,20.27
2019-04-25T16:22:18.172Z,19.89
2019-04-25T16:25:11.469Z,19.89
2019-04-25T16:27:50.668Z,19.46
2019-04-25T16:30:39.101Z,18.83
2019-04-25T16:33:34.058Z,18.50
2019-04-25T16:36:35.025Z,18.20
2019-04-25T16:39:15.771Z,18.16
2019-04-25T16:42:01.074Z,17.71
2019-04-25T16:44:46.622Z,17.02
2019-04-25T16:47:27.387Z,17.02
2019-04-25T16:50:20.784Z,16.48
2019-04-25T16:53:01.685Z,16.48
2019-04-25T16:55:38.961Z,16.28
2019-04-25T16:58:08.432Z,16.14
2019-04-25T17:00:54.950Z,15.96
2019-04-25T17:03:31.415Z,15.94
2019-04-25T17:06:16.877Z,15.76
2019-04-25T17:08:48.695Z,15.66
2019-04-25T17:11:19.817Z,15.70
2019-04-25T17:14:22.644Z,15.70
2019-04-25T17:17:21.730Z,15.60
2019-04-25T17:20:16.178Z,15.57
2019-04-25T17:22:50.903Z,15.44
2019-04-25T17:25:33.116Z,15.27
2019-04-25T17:28:12.023Z,15.28
2019-04-25T17:30:47.409Z,15.09
2019-04-25T17:33:43.764Z,14.86
2019-04-25T17:36:35.718Z,14.82
2019-04-25T17:39:35.634Z,14.76
2019-04-25T17:42:10.445Z,14.58
2019-04-25T17:44:54.835Z,14.55
2019-04-25T17:47:33.126Z,14.53
2019-04-25T17:50:28.397Z,14.50
2019-04-25T17:53:17.702Z,14.64
2019-04-25T17:56:12.664Z,14.41
2019-04-25T17:58:48.638Z,14.29
2019-04-25T18:01:26.141Z,14.18
2019-04-25T18:04:08.127Z,13.96
2019-04-25T18:06:43.168Z,13.86
2019-04-25T18:09:15.739Z,13.77
2019-04-25T18:11:58.491Z,13.60
2019-04-25T18:14:38.889Z,13.51
2019-04-25T18:17:11.030Z,13.53
2019-04-25T18:19:59.680Z,13.33
2019-04-25T18:22:50.614Z,13.29
2019-04-25T18:25:52.737Z,13.06
2019-04-25T18:28:45.723Z,12.93
2019-04-25T18:31:28.680Z,12.75
2019-04-25T18:34:12.940Z,12.67
2019-04-25T18:37:26.874Z,12.58
2019-04-25T18:40:06.217Z,12.59
2019-04-25T18:42:57.149Z,12.42
2019-04-25T18:45:33.946Z,12.33
2019-04-25T18:48:31.464Z,12.17
2019-04-25T18:51:25.891Z,12.10
2019-04-25T18:54:22.002Z,11.99
2019-04-25T18:59:33.140Z,11.92
2019-04-25T19:02:17.848Z,11.78
2019-04-25T19:05:07.778Z,11.75
2019-04-25T19:07:47.698Z,11.74
2019-04-25T19:10:19.265Z,11.78
2019-04-25T19:12:56.967Z,11.69
2019-04-25T19:15:34.111Z,11.72
2019-04-25T19:18:19.199Z,11.72
2019-04-25T19:20:54.922Z,11.67
2019-04-25T19:23:35.228Z,11.67
2019-04-25T19:26:23.026Z,11.62
2019-04-25T19:28:56.708Z,11.69
2019-04-25T19:31:36.053Z,11.77
2019-04-25T19:34:09.240Z,11.56
2019-04-25T19:36:43.372Z,11.57
2019-04-25T19:39:19.041Z,11.62
2019-04-25T19:42:11.733Z,11.58
2019-04-25T19:44:51.259Z,11.50
2019-04-25T19:47:38.917Z,11.46
2019-04-25T19:50:36.239Z,11.51
2019-04-25T19:53:08.309Z,11.43
2019-04-25T19:55:39.125Z,11.49
2019-04-25T19:58:14.654Z,11.44
2019-04-25T20:00:50.955Z,11.38
2019-04-25T20:03:51.813Z,11.18
2019-04-25T20:06:34.654Z,11.20
2019-04-25T20:09:15.913Z,11.07
2019-04-25T20:11:54.556Z,11.07
2019-04-25T20:14:33.200Z,11.08
2019-04-25T20:17:14.604Z,11.11
2019-04-25T20:20:14.833Z,11.05
2019-04-25T20:22:56.001Z,11.19
2019-04-25T20:25:31.828Z,11.14
2019-04-25T20:28:37.863Z,11.16
2019-04-25T20:31:48.645Z,10.95
2019-04-25T20:34:44.582Z,10.90
2019-04-25T20:37:36.684Z,10.88
2019-04-25T20:40:35.758Z,10.87
2019-04-25T20:43:21.732Z,10.92
2019-04-25T20:46:20.687Z,10.94
2019-04-25T20:49:26.691Z,10.99
2019-04-25T20:52:27.458Z,10.94
2019-04-25T20:55:26.303Z,11.05
2019-04-25T20:58:16.443Z,11.01
2019-04-25T21:01:25.367Z,11.09
2019-04-25T21:04:39.954Z,11.08
2019-04-25T21:07:44.364Z,11.08
2019-04-25T21:10:55.810Z,11.20
2019-04-25T21:14:04.335Z,11.14
2019-04-25T21:17:31.319Z,11.15
2019-04-25T21:20:31.902Z,11.21
2019-04-25T21:23:15.667Z,11.22
2019-04-25T21:26:04.345Z,11.16
2019-04-25T21:29:02.710Z,11.13
2019-04-25T21:32:03.456Z,11.18
2019-04-25T21:34:38.743Z,11.27
2019-04-25T21:37:09.725Z,11.21
2019-04-25T21:40:24.057Z,11.36
2019-04-25T21:43:26.891Z,11.29
2019-04-25T21:46:26.530Z,11.30
2019-04-25T21:49:25.434Z,11.32
2019-04-25T21:52:35.250Z,11.31
2019-04-25T21:55:38.675Z,11.26
2019-04-25T21:58:34.462Z,11.01
2019-04-25T22:01:45.948Z,10.94
2019-04-25T22:04:42.337Z,10.97
2019-04-25T22:07:51.510Z,10.87
2019-04-25T22:10:59.118Z,10.82
2019-04-25T22:13:59.485Z,10.67
2019-04-25T22:17:00.909Z,10.67
2019-04-25T22:20:00.683Z,10.64
2019-04-25T22:23:01.191Z,10.65
2019-04-25T22:26:04.121Z,10.70
2019-04-25T22:29:10.713Z,10.69
2019-04-25T22:32:31.752Z,10.71
2019-04-25T22:35:34.335Z,10.73
2019-04-25T22:38:34.341Z,10.66
2019-04-25T22:41:32.799Z,10.75
2019-04-25T22:44:31.188Z,10.67
2019-04-25T22:47:25.011Z,10.67
2019-04-25T22:50:28.371Z,10.52
2019-04-25T22:53:40.358Z,10.40
2019-04-25T22:56:43.291Z,10.40
2019-04-25T22:59:40.762Z,10.48
2019-04-25T23:02:58.263Z,10.27
2019-04-25T23:06:09.679Z,10.14
2019-04-25T23:09:08.616Z,10.10
2019-04-25T23:12:11.217Z,10.10
2019-04-25T23:15:10.922Z,10.22
2019-04-25T23:18:13.358Z,10.25
2019-04-25T23:21:25.625Z,10.28
2019-04-25T23:24:25.787Z,10.27
2019-04-25T23:27:44.236Z,10.22
2019-04-25T23:30:43.825Z,10.31
2019-04-25T23:33:51.837Z,10.16
2019-04-25T23:37:07.140Z,10.11
2019-04-25T23:40:12.140Z,10.06
2019-04-25T23:43:19.932Z,9.85
2019-04-25T23:46:27.258Z,9.71
2019-04-25T23:49:29.635Z,9.73
2019-04-25T23:52:35.307Z,9.74
2019-04-25T23:55:34.303Z,9.77
2019-04-25T23:58:40.621Z,9.68
